createdAt,value
2022-11-03T00:01:47.938Z,82.20
2022-11-03T00:04:20.340Z,78.40
2022-11-03T00:06:50.233Z,78.30
2022-11-03T00:09:18.574Z,78.40
2022-11-03T00:12:01.774Z,78.40
2022-11-03T00:14:28.846Z,78.40
2022-11-03T00:16:55.603Z,78.40
2022-11-03T00:19:22.360Z,69.00
2022-11-03T00:21:49.991Z,65.20
2022-11-03T00:24:16.741Z,69.40
2022-11-03T00:26:43.475Z,77.00
2022-11-03T00:29:12.770Z,74.50
2022-11-03T00:31:42.059Z,65.60
2022-11-03T00:34:09.509Z,65.20
2022-11-03T00:36:39.343Z,61.70
2022-11-03T00:39:06.631Z,62.70
2022-11-03T00:41:34.176Z,62.70
2022-11-03T00:44:01.317Z,64.40
2022-11-03T00:46:30.339Z,66.00
2022-11-03T00:48:57.107Z,61.30
2022-11-03T00:51:30.109Z,62.30
2022-11-03T00:54:02.319Z,57.40
2022-11-03T00:56:40.312Z,58.50
2022-11-03T00:59:08.918Z,49.50
2022-11-03T01:01:45.226Z,45.20
2022-11-03T01:04:33.453Z,43.60
2022-11-03T01:07:01.516Z,50.10
2022-11-03T01:14:51.593Z,99.90
2022-11-03T01:17:21.336Z,99.90
2022-11-03T01:19:48.649Z,99.90
2022-11-03T01:22:16.622Z,99.90
2022-11-03T01:24:44.007Z,99.90
2022-11-03T01:27:15.980Z,99.90
2022-11-03T01:29:43.347Z,99.90
2022-11-03T01:32:11.106Z,99.90
2022-11-03T01:34:38.115Z,99.90
2022-11-03T01:37:05.486Z,96.40
2022-11-03T01:39:32.279Z,92.30
2022-11-03T01:41:59.086Z,91.20
2022-11-03T01:44:31.670Z,93.20
2022-11-03T01:47:22.824Z,93.60
2022-11-03T01:50:04.463Z,90.20
2022-11-03T01:52:37.072Z,90.20
2022-11-03T01:55:13.501Z,90.00
2022-11-03T01:57:55.731Z,79.10
2022-11-03T02:00:22.784Z,76.20
2022-11-03T02:02:50.860Z,78.90
2022-11-03T02:05:19.467Z,79.10
2022-11-03T02:08:13.554Z,83.70
2022-11-03T02:10:40.704Z,79.40
2022-11-03T02:13:16.431Z,78.70
2022-11-03T02:15:44.435Z,84.70
2022-11-03T02:18:12.592Z,78.70
2022-11-03T02:20:40.180Z,79.00
2022-11-03T02:23:57.389Z,74.60
2022-11-03T02:26:24.224Z,62.40
2022-11-03T02:31:41.663Z,67.30
2022-11-03T02:34:17.611Z,63.90
2022-11-03T02:36:52.947Z,62.30
2022-11-03T02:39:28.378Z,65.10
2022-11-03T02:41:57.477Z,59.40
2022-11-03T02:44:25.780Z,59.90
2022-11-03T02:46:58.249Z,60.50
2022-11-03T02:49:25.000Z,53.60
2022-11-03T02:52:01.780Z,48.80
2022-11-03T02:54:34.968Z,56.30
2022-11-03T02:57:07.632Z,48.00
2022-11-03T02:59:53.537Z,44.80
2022-11-03T03:02:28.514Z,36.80
2022-11-03T03:05:01.588Z,43.60
2022-11-03T03:07:34.117Z,45.80
2022-11-03T03:10:06.814Z,41.60
2022-11-03T03:12:37.048Z,40.00
2022-11-03T03:15:08.080Z,30.00
2022-11-03T03:17:44.810Z,30.40
2022-11-03T03:20:32.703Z,21.80
2022-11-03T03:23:21.721Z,21.70
2022-11-03T03:26:07.771Z,21.90
2022-11-03T03:28:43.891Z,21.80
2022-11-03T03:31:14.404Z,21.60
2022-11-03T03:33:46.507Z,21.80
2022-11-03T03:36:18.311Z,23.60
2022-11-03T03:38:52.143Z,21.60
2022-11-03T03:41:22.315Z,21.60
2022-11-03T03:43:55.275Z,21.90
2022-11-03T03:46:24.609Z,30.00
2022-11-03T03:48:51.508Z,29.00
2022-11-03T03:51:22.311Z,28.60
2022-11-03T03:53:53.144Z,25.70
2022-11-03T03:56:36.307Z,29.90
2022-11-03T03:59:03.173Z,23.60
2022-11-03T04:01:30.060Z,23.80
2022-11-03T04:03:57.298Z,36.00
2022-11-03T04:06:24.021Z,35.20
2022-11-03T04:08:50.864Z,42.90
2022-11-03T04:11:36.160Z,49.60
2022-11-03T04:14:21.712Z,53.60
2022-11-03T04:17:08.775Z,51.40
2022-11-03T04:19:54.268Z,10.90
2022-11-03T04:22:22.239Z,8.10
2022-11-03T04:24:51.025Z,7.40
2022-11-03T04:27:38.626Z,7.00
2022-11-03T04:30:19.240Z,5.20
2022-11-03T04:32:48.515Z,13.80
2022-11-03T04:35:22.200Z,4.00
2022-11-03T04:37:58.352Z,7.70
2022-11-03T04:40:25.168Z,5.00
2022-11-03T04:42:52.169Z,5.20
2022-11-03T04:45:30.189Z,3.50
2022-11-03T04:47:59.373Z,5.70
2022-11-03T04:50:26.428Z,4.40
2022-11-03T04:52:58.173Z,8.50
2022-11-03T04:55:25.876Z,13.40
2022-11-03T04:58:02.557Z,5.00
2022-11-03T05:00:29.561Z,4.10
2022-11-03T05:02:56.745Z,1.60
2022-11-03T05:05:26.930Z,1.30
2022-11-03T05:07:59.046Z,4.30
2022-11-03T05:10:28.037Z,9.90
2022-11-03T05:12:56.245Z,6.30
2022-11-03T05:15:36.805Z,5.00
2022-11-03T05:18:20.373Z,1.00
2022-11-03T05:20:55.063Z,6.10
2022-11-03T05:23:22.864Z,8.60
2022-11-03T05:25:58.202Z,11.60
2022-11-03T05:28:28.287Z,20.90
2022-11-03T05:30:55.441Z,11.50
2022-11-03T05:33:35.559Z,13.10
2022-11-03T05:36:08.184Z,13.20
2022-11-03T05:38:35.026Z,21.10
2022-11-03T05:41:02.139Z,21.00
2022-11-03T05:43:29.978Z,21.10
2022-11-03T05:46:00.530Z,21.20
2022-11-03T05:48:41.928Z,21.10
2022-11-03T05:51:24.558Z,21.10
2022-11-03T05:53:55.067Z,21.00
2022-11-03T05:56:24.540Z,21.10
2022-11-03T05:58:53.861Z,21.00
2022-11-03T06:01:31.496Z,21.00
2022-11-03T06:04:28.656Z,34.70
2022-11-03T06:07:23.401Z,34.80
2022-11-03T06:09:50.537Z,37.10
2022-11-03T06:12:20.632Z,35.80
2022-11-03T06:14:47.710Z,33.00
2022-11-03T06:17:26.904Z,38.80
2022-11-03T06:19:58.805Z,50.90
2022-11-03T06:22:37.704Z,51.70
2022-11-03T06:25:24.341Z,54.80
2022-11-03T06:27:52.464Z,57.90
2022-11-03T06:30:32.482Z,51.80
2022-11-03T06:33:04.312Z,62.50
2022-11-03T06:35:31.458Z,62.30
2022-11-03T06:37:58.876Z,60.00
2022-11-03T06:40:36.963Z,59.00
2022-11-03T06:43:37.969Z,67.00
2022-11-03T06:46:14.898Z,68.30
2022-11-03T06:48:41.696Z,65.50
2022-11-03T06:51:22.576Z,64.80
2022-11-03T06:53:54.147Z,59.00
2022-11-03T06:56:24.635Z,63.40
2022-11-03T06:58:54.122Z,61.30
2022-11-03T07:01:35.391Z,61.90
2022-11-03T07:04:13.487Z,57.50
2022-11-03T07:06:40.827Z,59.50
2022-11-03T07:09:16.316Z,56.00
2022-11-03T07:11:47.617Z,54.60
2022-11-03T07:14:29.271Z,46.60
2022-11-03T07:17:02.256Z,59.40
2022-11-03T07:19:29.016Z,51.50
2022-11-03T07:22:01.039Z,51.90
2022-11-03T07:24:31.498Z,55.20
2022-11-03T07:27:20.936Z,54.00
2022-11-03T07:29:48.937Z,49.50
2022-11-03T07:32:20.215Z,46.60
2022-11-03T07:34:49.307Z,47.10
2022-11-03T07:37:22.676Z,47.20
2022-11-03T07:39:51.257Z,46.20
2022-11-03T07:42:24.147Z,47.40
2022-11-03T07:44:52.901Z,39.30
2022-11-03T07:47:22.123Z,46.80
2022-11-03T07:49:49.136Z,43.20
2022-11-03T07:52:24.046Z,45.30
2022-11-03T07:54:55.088Z,30.00
2022-11-03T07:57:30.578Z,31.00
2022-11-03T08:00:08.904Z,23.70
2022-11-03T08:02:52.574Z,23.40
2022-11-03T08:07:51.321Z,21.80
2022-11-03T08:10:18.134Z,30.60
2022-11-03T08:12:44.900Z,21.80
2022-11-03T08:15:11.775Z,21.70
2022-11-03T08:17:43.646Z,21.70
2022-11-03T08:20:11.022Z,21.90
2022-11-03T08:22:38.212Z,21.80
2022-11-03T08:25:05.506Z,21.90
2022-11-03T08:27:32.405Z,21.20
2022-11-03T08:29:59.158Z,21.20
2022-11-03T08:32:25.954Z,21.20
2022-11-03T08:34:52.692Z,20.60
2022-11-03T08:37:19.505Z,21.20
2022-11-03T08:39:46.250Z,14.00
2022-11-03T08:42:13.336Z,15.60
2022-11-03T08:44:40.256Z,18.40
2022-11-03T08:47:07.650Z,21.20
2022-11-03T08:49:34.407Z,16.10
2022-11-03T08:52:01.183Z,19.30
2022-11-03T08:54:27.952Z,13.60
2022-11-03T08:56:54.711Z,12.60
2022-11-03T08:59:21.478Z,18.70
2022-11-03T09:01:48.272Z,2.80
2022-11-03T09:04:15.174Z,5.70
2022-11-03T09:06:41.964Z,1.00
2022-11-03T09:11:55.475Z,1.00
2022-11-03T09:14:22.300Z,1.00
2022-11-03T09:16:49.088Z,1.00
2022-11-03T09:19:15.958Z,1.00
2022-11-03T09:21:42.689Z,1.00
2022-11-03T09:24:09.511Z,1.00
2022-11-03T09:26:36.343Z,1.00
2022-11-03T09:29:03.123Z,1.00
2022-11-03T09:31:30.121Z,1.00
2022-11-03T09:33:57.087Z,1.00
2022-11-03T09:36:23.827Z,1.00
2022-11-03T09:38:50.956Z,1.00
2022-11-03T09:41:29.138Z,1.00
2022-11-03T09:44:07.666Z,1.00
2022-11-03T09:46:35.361Z,1.00
2022-11-03T09:49:03.664Z,1.00
2022-11-03T09:51:32.073Z,1.00
2022-11-03T09:54:03.564Z,1.00
2022-11-03T09:56:30.809Z,1.00
2022-11-03T09:58:57.636Z,1.00
2022-11-03T10:01:24.805Z,1.00
2022-11-03T10:03:52.191Z,1.00
2022-11-03T10:06:21.122Z,1.00
2022-11-03T10:08:48.764Z,1.00
2022-11-03T10:11:15.724Z,1.00
2022-11-03T10:13:53.224Z,1.00
2022-11-03T10:16:23.135Z,1.00
2022-11-03T10:18:50.332Z,1.00
2022-11-03T10:21:26.736Z,1.00
2022-11-03T10:23:53.596Z,1.00
2022-11-03T10:26:21.373Z,1.00
2022-11-03T10:29:01.861Z,1.00
2022-11-03T10:31:39.906Z,1.00
2022-11-03T10:34:28.291Z,1.00
2022-11-03T10:37:13.159Z,1.00
2022-11-03T10:39:40.159Z,1.00
2022-11-03T10:42:23.255Z,1.00
2022-11-03T10:44:53.686Z,1.00
2022-11-03T10:47:34.496Z,1.00
2022-11-03T10:50:20.899Z,1.00
2022-11-03T10:52:47.844Z,1.00
2022-11-03T10:55:16.300Z,1.00
2022-11-03T10:57:50.527Z,1.00
2022-11-03T11:00:20.118Z,1.00
2022-11-03T11:02:48.736Z,1.00
2022-11-03T11:05:21.973Z,1.00
2022-11-03T11:07:53.037Z,1.00
2022-11-03T11:10:29.098Z,1.00
2022-11-03T11:13:18.695Z,1.00
2022-11-03T11:15:54.451Z,1.00
2022-11-03T11:18:31.039Z,1.00
2022-11-03T11:21:01.658Z,1.00
2022-11-03T11:23:31.046Z,1.00
2022-11-03T11:26:10.277Z,1.00
2022-11-03T11:28:42.022Z,1.00
2022-11-03T11:32:05.495Z,1.00
2022-11-03T11:34:35.098Z,1.00
2022-11-03T11:37:02.342Z,1.00
2022-11-03T11:39:31.073Z,1.00
2022-11-03T11:42:17.940Z,1.00
2022-11-03T11:44:54.716Z,1.00
2022-11-03T11:47:54.018Z,1.00
2022-11-03T11:50:23.590Z,1.00
2022-11-03T11:53:13.307Z,1.00
2022-11-03T11:55:59.532Z,1.00
2022-11-03T11:58:49.142Z,1.00
2022-11-03T12:01:21.803Z,1.00
2022-11-03T12:03:50.634Z,1.00
2022-11-03T12:06:17.538Z,1.00
2022-11-03T12:08:44.510Z,1.00
2022-11-03T12:11:13.023Z,1.00
2022-11-03T12:13:51.238Z,1.00
2022-11-03T12:16:30.513Z,1.00
2022-11-03T12:19:00.216Z,1.00
2022-11-03T12:21:49.817Z,1.00
2022-11-03T12:24:56.439Z,1.00
2022-11-03T12:27:26.435Z,1.00
2022-11-03T12:29:57.867Z,1.00
2022-11-03T12:32:33.073Z,1.00
2022-11-03T12:35:01.728Z,1.00
2022-11-03T12:37:28.466Z,1.00
2022-11-03T12:39:55.313Z,1.00
2022-11-03T12:42:24.508Z,1.00
2022-11-03T12:44:51.994Z,1.00
2022-11-03T12:47:19.628Z,1.00
2022-11-03T12:49:46.419Z,1.00
2022-11-03T12:52:13.341Z,1.00
2022-11-03T12:54:40.089Z,1.00
2022-11-03T12:57:06.926Z,1.00
2022-11-03T12:59:33.793Z,1.00
2022-11-03T13:02:00.653Z,1.00
2022-11-03T13:04:27.697Z,1.00
2022-11-03T13:06:54.468Z,1.00
2022-11-03T13:09:21.545Z,1.00
2022-11-03T13:12:06.882Z,1.00
2022-11-03T13:14:33.696Z,1.00
2022-11-03T13:17:00.597Z,1.00
2022-11-03T13:19:27.375Z,1.00
2022-11-03T13:21:54.116Z,1.00
2022-11-03T13:24:20.891Z,1.00
2022-11-03T13:26:47.665Z,1.00
2022-11-03T13:29:14.412Z,1.00
2022-11-03T13:31:41.234Z,1.00
2022-11-03T13:34:08.015Z,1.00
2022-11-03T13:36:34.793Z,1.00
2022-11-03T13:39:01.670Z,1.00
2022-11-03T13:41:28.411Z,1.00
2022-11-03T13:43:55.181Z,1.00
2022-11-03T13:46:21.997Z,1.00
2022-11-03T13:51:35.470Z,1.00
2022-11-03T13:59:36.218Z,1.00
2022-11-03T14:04:50.896Z,1.00
2022-11-03T14:07:17.648Z,1.00
2022-11-03T14:09:44.393Z,1.00
2022-11-03T14:12:29.927Z,1.00
2022-11-03T14:15:10.947Z,1.00
2022-11-03T14:17:39.609Z,1.00
2022-11-03T14:20:10.677Z,1.00
2022-11-03T14:22:37.663Z,1.00
2022-11-03T14:25:05.468Z,1.00
2022-11-03T14:27:32.376Z,1.00
2022-11-03T14:29:59.201Z,1.00
2022-11-03T14:32:25.969Z,1.00
2022-11-03T14:34:52.829Z,1.00
2022-11-03T14:37:19.829Z,1.00
2022-11-03T14:39:46.694Z,1.00
2022-11-03T14:42:17.449Z,1.00
2022-11-03T14:44:48.683Z,1.00
2022-11-03T14:47:21.736Z,1.00
2022-11-03T14:49:48.827Z,1.00
2022-11-03T14:52:17.630Z,1.00
2022-11-03T14:54:44.682Z,1.00
2022-11-03T14:57:11.820Z,1.00
2022-11-03T14:59:39.167Z,1.00
2022-11-03T15:02:06.441Z,1.00
2022-11-03T15:04:33.618Z,1.00
2022-11-03T15:07:00.515Z,1.00
2022-11-03T15:09:27.370Z,1.00
2022-11-03T15:11:54.303Z,1.00
2022-11-03T15:14:21.130Z,1.00
2022-11-03T15:16:48.177Z,1.00
2022-11-03T15:19:15.101Z,1.00
2022-11-03T15:21:41.992Z,1.00
2022-11-03T15:26:55.655Z,1.00
2022-11-03T15:29:24.019Z,1.00
2022-11-03T15:31:51.040Z,1.00
2022-11-03T15:34:18.217Z,1.00
2022-11-03T15:36:45.232Z,1.00
2022-11-03T15:39:13.183Z,1.00
2022-11-03T15:41:39.957Z,1.00
2022-11-03T15:44:06.714Z,1.00
2022-11-03T15:46:33.621Z,1.00
2022-11-03T15:49:00.672Z,1.00
2022-11-03T15:51:27.559Z,1.00
2022-11-03T15:53:58.409Z,1.00
2022-11-03T15:56:26.983Z,1.00
2022-11-03T15:58:53.773Z,1.00
2022-11-03T16:01:20.819Z,1.00
2022-11-03T16:03:47.779Z,1.00
2022-11-03T16:06:14.521Z,1.00
2022-11-03T16:08:41.353Z,1.00
2022-11-03T16:11:09.087Z,1.00
2022-11-03T16:13:36.269Z,1.00
2022-11-03T16:16:03.408Z,1.00
2022-11-03T16:18:30.219Z,1.00
2022-11-03T16:20:57.026Z,1.00
2022-11-03T16:23:24.225Z,1.00
2022-11-03T16:25:50.977Z,1.00
2022-11-03T16:28:17.744Z,1.00
2022-11-03T16:30:47.405Z,1.00
2022-11-03T16:33:18.052Z,1.00
2022-11-03T16:35:45.089Z,1.00
2022-11-03T16:38:13.532Z,1.00
2022-11-03T16:40:40.363Z,1.00
2022-11-03T16:43:07.330Z,1.00
2022-11-03T16:45:37.646Z,1.00
2022-11-03T16:48:05.982Z,1.00
2022-11-03T16:50:33.516Z,1.00
2022-11-03T16:53:00.314Z,1.00
2022-11-03T16:55:27.465Z,1.00
2022-11-03T16:57:54.263Z,1.00
2022-11-03T17:00:21.345Z,1.00
2022-11-03T17:02:48.423Z,1.00
2022-11-03T17:05:17.738Z,1.00
2022-11-03T17:07:51.769Z,1.90
2022-11-03T17:10:20.727Z,4.30
2022-11-03T17:12:47.926Z,4.30
2022-11-03T17:15:14.871Z,5.50
2022-11-03T17:17:41.753Z,9.40
2022-11-03T17:20:10.655Z,1.00
2022-11-03T17:22:37.803Z,5.00
2022-11-03T17:25:06.463Z,6.40
2022-11-03T17:27:45.335Z,10.60
2022-11-03T17:30:18.635Z,13.30
2022-11-03T17:32:45.731Z,15.30
2022-11-03T17:35:25.746Z,22.00
2022-11-03T17:37:53.154Z,22.30
2022-11-03T17:40:22.648Z,22.30
2022-11-03T17:42:50.430Z,22.30
2022-11-03T17:45:22.997Z,22.30
2022-11-03T17:47:50.554Z,22.40
2022-11-03T17:50:22.585Z,22.40
2022-11-03T17:52:51.187Z,22.40
2022-11-03T17:55:30.947Z,22.30
2022-11-03T17:58:00.441Z,25.60
2022-11-03T18:00:28.437Z,35.30
2022-11-03T18:02:56.308Z,41.90
2022-11-03T18:05:31.633Z,43.90
2022-11-03T18:08:00.609Z,41.70
2022-11-03T18:10:31.213Z,37.90
2022-11-03T18:13:16.555Z,35.90
2022-11-03T18:15:50.775Z,35.10
2022-11-03T18:18:41.856Z,41.40
2022-11-03T18:21:19.723Z,35.30
2022-11-03T18:23:46.585Z,39.80
2022-11-03T18:26:25.717Z,38.30
2022-11-03T18:28:53.835Z,41.20
2022-11-03T18:31:34.924Z,46.60
2022-11-03T18:34:05.240Z,45.70
2022-11-03T18:36:35.168Z,45.80
2022-11-03T18:39:02.617Z,35.10
2022-11-03T18:41:39.143Z,34.60
2022-11-03T18:44:21.043Z,28.90
2022-11-03T18:46:49.032Z,35.70
2022-11-03T18:49:16.160Z,34.80
2022-11-03T18:51:49.629Z,43.60
2022-11-03T18:56:53.218Z,34.10
2022-11-03T18:59:24.933Z,29.20
2022-11-03T19:01:52.408Z,47.10
2022-11-03T19:04:19.263Z,38.20
2022-11-03T19:06:47.983Z,30.00
2022-11-03T19:09:19.779Z,22.60
2022-11-03T19:11:48.788Z,22.60
2022-11-03T19:14:26.310Z,13.50
2022-11-03T19:17:22.330Z,14.20
2022-11-03T19:19:41.433Z,14.00
2022-11-03T19:22:17.430Z,7.50
2022-11-03T19:24:45.257Z,11.70
2022-11-03T19:27:28.727Z,1.00
2022-11-03T19:29:57.371Z,1.00
2022-11-03T19:32:31.280Z,2.70
2022-11-03T19:35:06.268Z,2.80
2022-11-03T19:37:35.754Z,1.00
2022-11-03T19:40:08.774Z,1.00
2022-11-03T19:42:38.607Z,1.00
2022-11-03T19:45:08.312Z,1.00
2022-11-03T19:47:47.884Z,1.00
2022-11-03T19:50:23.811Z,1.00
2022-11-03T19:52:52.017Z,1.00
2022-11-03T19:55:20.010Z,4.60
2022-11-03T19:57:47.123Z,1.00
2022-11-03T20:00:17.013Z,1.00
2022-11-03T20:02:44.772Z,1.00
2022-11-03T20:05:13.207Z,1.00
2022-11-03T20:07:41.808Z,1.00
2022-11-03T20:10:19.408Z,41.40
2022-11-03T20:12:46.844Z,36.80
2022-11-03T20:15:16.394Z,48.80
2022-11-03T20:17:45.149Z,40.70
2022-11-03T20:20:23.204Z,42.30
2022-11-03T20:22:52.745Z,37.90
2022-11-03T20:25:29.086Z,31.70
2022-11-03T20:27:57.652Z,24.40
2022-11-03T20:30:29.074Z,25.40
2022-11-03T20:32:55.901Z,22.10
2022-11-03T20:35:25.529Z,22.10
2022-11-03T20:37:57.073Z,22.20
2022-11-03T20:40:26.767Z,31.10
2022-11-03T20:43:00.049Z,31.30
2022-11-03T20:45:29.386Z,30.80
2022-11-03T20:47:56.728Z,27.30
2022-11-03T20:50:25.005Z,33.70
2022-11-03T20:52:52.872Z,29.20
2022-11-03T20:55:24.854Z,35.00
2022-11-03T20:57:54.131Z,36.80
2022-11-03T21:00:26.833Z,35.40
2022-11-03T21:02:55.507Z,23.80
2022-11-03T21:05:25.717Z,21.90
2022-11-03T21:07:54.861Z,21.70
2022-11-03T21:10:23.731Z,21.70
2022-11-03T21:12:52.005Z,21.90
2022-11-03T21:16:03.602Z,21.70
2022-11-03T21:18:50.367Z,21.80
2022-11-03T21:21:21.059Z,21.70
2022-11-03T21:23:48.200Z,21.60
2022-11-03T21:26:14.928Z,21.60
2022-11-03T21:28:41.809Z,22.10
2022-11-03T21:31:13.316Z,21.60
2022-11-03T21:33:40.165Z,21.60
2022-11-03T21:36:07.265Z,21.80
2022-11-03T21:38:34.019Z,21.60
2022-11-03T21:41:19.467Z,21.70
2022-11-03T21:44:05.094Z,21.80
2022-11-03T21:46:31.945Z,21.60
2022-11-03T21:49:17.204Z,22.10
2022-11-03T21:51:44.017Z,17.20
2022-11-03T21:54:10.748Z,21.90
2022-11-03T21:56:37.543Z,21.60
2022-11-03T21:59:04.305Z,21.70
2022-11-03T22:01:31.367Z,21.70
2022-11-03T22:03:58.318Z,24.60
2022-11-03T22:06:25.425Z,28.80
2022-11-03T22:08:52.401Z,21.60
2022-11-03T22:11:21.967Z,21.80
2022-11-03T22:13:58.267Z,21.70
2022-11-03T22:16:38.008Z,23.70
2022-11-03T22:19:26.449Z,21.80
2022-11-03T22:22:12.591Z,21.90
2022-11-03T22:24:58.683Z,21.90
2022-11-03T22:27:27.363Z,21.90
2022-11-03T22:30:13.156Z,21.70
2022-11-03T22:32:40.304Z,21.80
2022-11-03T22:35:27.600Z,21.90
2022-11-03T22:38:09.441Z,20.80
2022-11-03T22:40:56.042Z,21.60
2022-11-03T22:43:42.681Z,21.30
2022-11-03T22:46:10.915Z,15.30
2022-11-03T22:48:38.839Z,21.80
2022-11-03T22:51:07.632Z,18.30
2022-11-03T22:53:54.507Z,21.80
2022-11-03T22:56:23.402Z,21.80
2022-11-03T22:58:50.569Z,18.60
2022-11-03T23:01:20.412Z,21.80
2022-11-03T23:03:48.400Z,16.80
2022-11-03T23:06:23.700Z,22.00
2022-11-03T23:08:51.665Z,21.90
2022-11-03T23:11:22.051Z,21.80
2022-11-03T23:13:57.863Z,21.90
2022-11-03T23:16:30.084Z,18.40
2022-11-03T23:19:16.187Z,21.80
2022-11-03T23:21:45.783Z,22.00
2022-11-03T23:24:31.563Z,19.70
2022-11-03T23:27:01.966Z,4.00
2022-11-03T23:29:29.406Z,1.00
2022-11-03T23:31:57.767Z,1.00
2022-11-03T23:34:24.792Z,1.00
2022-11-03T23:36:52.649Z,1.00
2022-11-03T23:39:20.810Z,1.00
2022-11-03T23:41:50.272Z,1.00
2022-11-03T23:44:17.417Z,1.00
2022-11-03T23:47:03.451Z,1.00
2022-11-03T23:49:30.685Z,1.00
2022-11-03T23:51:57.447Z,1.00
2022-11-03T23:54:24.397Z,1.00
2022-11-03T23:57:09.745Z,1.00
2022-11-03T23:59:36.526Z,1.00
